sensor_id;sensor_type;location;lat;lon;timestamp;temperature;humidity
16503;DHT22;53067;48.114;11.694;2023-06-22T00:01:31;23.10;72.20
16503;DHT22;53067;48.114;11.694;2023-06-22T00:03:59;23.10;72.40
16503;DHT22;53067;48.114;11.694;2023-06-22T00:06:33;23.10;72.40
16503;DHT22;53067;48.114;11.694;2023-06-22T00:09:00;23.00;72.20
16503;DHT22;53067;48.114;11.694;2023-06-22T00:11:28;23.00;72.70
16503;DHT22;53067;48.114;11.694;2023-06-22T00:13:57;22.90;73.00
16503;DHT22;53067;48.114;11.694;2023-06-22T00:16:25;22.90;73.30
16503;DHT22;53067;48.114;11.694;2023-06-22T00:18:53;22.80;73.40
16503;DHT22;53067;48.114;11.694;2023-06-22T00:21:20;22.70;73.80
16503;DHT22;53067;48.114;11.694;2023-06-22T00:23:48;22.70;74.00
16503;DHT22;53067;48.114;11.694;2023-06-22T00:26:15;22.60;74.40
16503;DHT22;53067;48.114;11.694;2023-06-22T00:28:43;22.60;74.50
16503;DHT22;53067;48.114;11.694;2023-06-22T00:31:11;22.60;74.70
16503;DHT22;53067;48.114;11.694;2023-06-22T00:33:38;22.50;74.70
16503;DHT22;53067;48.114;11.694;2023-06-22T00:36:06;22.50;74.60
16503;DHT22;53067;48.114;11.694;2023-06-22T00:38:35;22.50;74.60
16503;DHT22;53067;48.114;11.694;2023-06-22T00:41:04;22.50;74.90
16503;DHT22;53067;48.114;11.694;2023-06-22T00:43:32;22.50;74.80
16503;DHT22;53067;48.114;11.694;2023-06-22T00:46:19;22.40;74.90
16503;DHT22;53067;48.114;11.694;2023-06-22T00:48:46;22.50;75.00
16503;DHT22;53067;48.114;11.694;2023-06-22T00:51:14;22.40;75.00
16503;DHT22;53067;48.114;11.694;2023-06-22T00:53:42;22.40;74.90
16503;DHT22;53067;48.114;11.694;2023-06-22T00:56:11;22.40;75.20
16503;DHT22;53067;48.114;11.694;2023-06-22T00:58:39;22.30;75.20
16503;DHT22;53067;48.114;11.694;2023-06-22T01:01:08;22.30;75.00
16503;DHT22;53067;48.114;11.694;2023-06-22T01:03:36;22.30;75.20
16503;DHT22;53067;48.114;11.694;2023-06-22T01:06:07;22.30;75.30
16503;DHT22;53067;48.114;11.694;2023-06-22T01:08:57;22.30;75.30
16503;DHT22;53067;48.114;11.694;2023-06-22T01:11:26;22.30;75.40
16503;DHT22;53067;48.114;11.694;2023-06-22T01:14:00;22.30;75.60
16503;DHT22;53067;48.114;11.694;2023-06-22T01:16:35;22.20;75.70
16503;DHT22;53067;48.114;11.694;2023-06-22T01:21:51;22.10;75.90
16503;DHT22;53067;48.114;11.694;2023-06-22T01:24:26;22.00;76.20
16503;DHT22;53067;48.114;11.694;2023-06-22T01:27:24;22.00;76.30
16503;DHT22;53067;48.114;11.694;2023-06-22T01:29:42;22.00;76.60
16503;DHT22;53067;48.114;11.694;2023-06-22T01:32:10;21.90;76.80
16503;DHT22;53067;48.114;11.694;2023-06-22T01:34:38;21.90;76.80
16503;DHT22;53067;48.114;11.694;2023-06-22T01:37:06;21.90;76.80
16503;DHT22;53067;48.114;11.694;2023-06-22T01:39:35;21.90;76.80
16503;DHT22;53067;48.114;11.694;2023-06-22T01:42:03;21.90;76.80
16503;DHT22;53067;48.114;11.694;2023-06-22T01:44:41;21.80;76.80
16503;DHT22;53067;48.114;11.694;2023-06-22T01:49:58;21.80;77.00
16503;DHT22;53067;48.114;11.694;2023-06-22T01:52:26;21.80;77.00
16503;DHT22;53067;48.114;11.694;2023-06-22T01:54:53;21.80;77.00
16503;DHT22;53067;48.114;11.694;2023-06-22T01:57:21;21.80;77.00
16503;DHT22;53067;48.114;11.694;2023-06-22T02:00:12;21.80;77.10
16503;DHT22;53067;48.114;11.694;2023-06-22T02:03:03;21.80;76.90
16503;DHT22;53067;48.114;11.694;2023-06-22T02:05:38;21.80;77.10
16503;DHT22;53067;48.114;11.694;2023-06-22T02:08:24;21.70;77.40
16503;DHT22;53067;48.114;11.694;2023-06-22T02:10:49;21.70;77.40
16503;DHT22;53067;48.114;11.694;2023-06-22T02:13:18;21.70;77.60
16503;DHT22;53067;48.114;11.694;2023-06-22T02:15:46;21.70;77.60
16503;DHT22;53067;48.114;11.694;2023-06-22T02:18:14;21.70;77.60
16503;DHT22;53067;48.114;11.694;2023-06-22T02:20:43;21.70;77.50
16503;DHT22;53067;48.114;11.694;2023-06-22T02:23:10;21.60;77.60
16503;DHT22;53067;48.114;11.694;2023-06-22T02:25:38;21.70;77.80
16503;DHT22;53067;48.114;11.694;2023-06-22T02:28:07;21.70;77.70
16503;DHT22;53067;48.114;11.694;2023-06-22T02:30:35;21.70;77.70
16503;DHT22;53067;48.114;11.694;2023-06-22T02:33:02;21.60;77.80
16503;DHT22;53067;48.114;11.694;2023-06-22T02:35:30;21.60;77.90
16503;DHT22;53067;48.114;11.694;2023-06-22T02:38:02;21.60;78.00
16503;DHT22;53067;48.114;11.694;2023-06-22T02:40:30;21.60;78.10
16503;DHT22;53067;48.114;11.694;2023-06-22T02:42:58;21.60;79.00
16503;DHT22;53067;48.114;11.694;2023-06-22T02:45:28;21.50;78.30
16503;DHT22;53067;48.114;11.694;2023-06-22T02:47:56;21.50;78.40
16503;DHT22;53067;48.114;11.694;2023-06-22T02:50:24;21.50;78.50
16503;DHT22;53067;48.114;11.694;2023-06-22T02:52:51;21.50;78.50
16503;DHT22;53067;48.114;11.694;2023-06-22T02:55:19;21.50;78.60
16503;DHT22;53067;48.114;11.694;2023-06-22T02:57:47;21.50;78.70
16503;DHT22;53067;48.114;11.694;2023-06-22T03:00:15;21.40;78.80
16503;DHT22;53067;48.114;11.694;2023-06-22T03:02:45;21.40;79.00
16503;DHT22;53067;48.114;11.694;2023-06-22T03:05:13;21.40;79.20
16503;DHT22;53067;48.114;11.694;2023-06-22T03:07:45;21.30;79.10
16503;DHT22;53067;48.114;11.694;2023-06-22T03:10:14;21.30;79.10
16503;DHT22;53067;48.114;11.694;2023-06-22T03:12:49;21.30;79.10
16503;DHT22;53067;48.114;11.694;2023-06-22T03:15:17;21.30;79.20
16503;DHT22;53067;48.114;11.694;2023-06-22T03:17:44;21.30;79.40
16503;DHT22;53067;48.114;11.694;2023-06-22T03:20:12;21.20;79.50
16503;DHT22;53067;48.114;11.694;2023-06-22T03:25:28;21.20;79.50
16503;DHT22;53067;48.114;11.694;2023-06-22T03:27:56;21.20;79.70
16503;DHT22;53067;48.114;11.694;2023-06-22T03:30:23;21.20;79.60
16503;DHT22;53067;48.114;11.694;2023-06-22T03:32:51;21.20;79.70
16503;DHT22;53067;48.114;11.694;2023-06-22T03:35:18;21.20;80.00
16503;DHT22;53067;48.114;11.694;2023-06-22T03:37:46;21.20;80.00
16503;DHT22;53067;48.114;11.694;2023-06-22T03:40:14;21.20;79.90
16503;DHT22;53067;48.114;11.694;2023-06-22T03:42:41;21.20;80.10
16503;DHT22;53067;48.114;11.694;2023-06-22T03:45:09;21.20;80.20
16503;DHT22;53067;48.114;11.694;2023-06-22T03:47:37;21.20;80.40
16503;DHT22;53067;48.114;11.694;2023-06-22T03:50:06;21.20;80.50
16503;DHT22;53067;48.114;11.694;2023-06-22T03:52:34;21.20;80.60
16503;DHT22;53067;48.114;11.694;2023-06-22T03:55:01;21.20;80.70
16503;DHT22;53067;48.114;11.694;2023-06-22T03:57:34;21.20;81.20
16503;DHT22;53067;48.114;11.694;2023-06-22T04:00:02;21.20;80.60
16503;DHT22;53067;48.114;11.694;2023-06-22T04:02:31;21.20;80.80
16503;DHT22;53067;48.114;11.694;2023-06-22T04:04:59;21.20;80.90
16503;DHT22;53067;48.114;11.694;2023-06-22T04:07:26;21.20;81.90
16503;DHT22;53067;48.114;11.694;2023-06-22T04:09:54;21.30;81.30
16503;DHT22;53067;48.114;11.694;2023-06-22T04:12:21;21.30;81.40
16503;DHT22;53067;48.114;11.694;2023-06-22T04:14:49;21.30;81.50
16503;DHT22;53067;48.114;11.694;2023-06-22T04:17:16;21.30;81.50
16503;DHT22;53067;48.114;11.694;2023-06-22T04:19:44;21.30;81.60
16503;DHT22;53067;48.114;11.694;2023-06-22T04:22:11;21.40;81.50
16503;DHT22;53067;48.114;11.694;2023-06-22T04:24:39;21.40;81.60
16503;DHT22;53067;48.114;11.694;2023-06-22T04:27:06;21.40;81.50
16503;DHT22;53067;48.114;11.694;2023-06-22T04:29:34;21.50;81.70
16503;DHT22;53067;48.114;11.694;2023-06-22T04:32:02;21.50;82.00
16503;DHT22;53067;48.114;11.694;2023-06-22T04:34:32;21.50;82.00
16503;DHT22;53067;48.114;11.694;2023-06-22T04:36:59;21.60;81.70
16503;DHT22;53067;48.114;11.694;2023-06-22T04:39:27;21.60;81.30
16503;DHT22;53067;48.114;11.694;2023-06-22T04:41:54;21.70;81.20
16503;DHT22;53067;48.114;11.694;2023-06-22T04:44:23;21.70;81.10
16503;DHT22;53067;48.114;11.694;2023-06-22T04:46:55;21.70;81.20
16503;DHT22;53067;48.114;11.694;2023-06-22T04:49:35;21.80;81.30
16503;DHT22;53067;48.114;11.694;2023-06-22T04:52:09;21.80;81.20
16503;DHT22;53067;48.114;11.694;2023-06-22T04:54:38;21.80;81.00
16503;DHT22;53067;48.114;11.694;2023-06-22T04:57:07;21.90;81.00
16503;DHT22;53067;48.114;11.694;2023-06-22T04:59:39;21.90;80.90
16503;DHT22;53067;48.114;11.694;2023-06-22T05:02:08;21.90;80.70
16503;DHT22;53067;48.114;11.694;2023-06-22T05:04:36;22.00;80.70
16503;DHT22;53067;48.114;11.694;2023-06-22T05:07:05;22.00;80.70
16503;DHT22;53067;48.114;11.694;2023-06-22T05:09:33;22.00;80.60
16503;DHT22;53067;48.114;11.694;2023-06-22T05:12:02;22.00;80.50
16503;DHT22;53067;48.114;11.694;2023-06-22T05:14:31;22.10;80.40
16503;DHT22;53067;48.114;11.694;2023-06-22T05:16:58;22.10;80.40
16503;DHT22;53067;48.114;11.694;2023-06-22T05:19:26;22.10;80.30
16503;DHT22;53067;48.114;11.694;2023-06-22T05:21:58;22.20;80.50
16503;DHT22;53067;48.114;11.694;2023-06-22T05:24:26;22.20;80.50
16503;DHT22;53067;48.114;11.694;2023-06-22T05:26:53;22.30;80.60
16503;DHT22;53067;48.114;11.694;2023-06-22T05:29:21;22.40;80.40
16503;DHT22;53067;48.114;11.694;2023-06-22T05:31:49;22.40;80.50
16503;DHT22;53067;48.114;11.694;2023-06-22T05:34:17;22.40;80.40
16503;DHT22;53067;48.114;11.694;2023-06-22T05:36:44;22.50;80.10
16503;DHT22;53067;48.114;11.694;2023-06-22T05:39:13;22.50;79.80
16503;DHT22;53067;48.114;11.694;2023-06-22T05:41:41;22.60;79.70
16503;DHT22;53067;48.114;11.694;2023-06-22T05:44:09;22.70;79.20
16503;DHT22;53067;48.114;11.694;2023-06-22T05:46:39;22.70;78.60
16503;DHT22;53067;48.114;11.694;2023-06-22T05:49:06;22.80;79.60
16503;DHT22;53067;48.114;11.694;2023-06-22T05:51:33;22.90;78.60
16503;DHT22;53067;48.114;11.694;2023-06-22T05:54:01;22.90;78.00
16503;DHT22;53067;48.114;11.694;2023-06-22T05:56:28;23.00;77.70
16503;DHT22;53067;48.114;11.694;2023-06-22T05:58:56;23.10;77.70
16503;DHT22;53067;48.114;11.694;2023-06-22T06:01:24;23.10;77.10
16503;DHT22;53067;48.114;11.694;2023-06-22T06:03:52;23.10;77.10
16503;DHT22;53067;48.114;11.694;2023-06-22T06:06:20;23.20;77.10
16503;DHT22;53067;48.114;11.694;2023-06-22T06:08:49;23.20;76.90
16503;DHT22;53067;48.114;11.694;2023-06-22T06:11:16;23.30;76.60
16503;DHT22;53067;48.114;11.694;2023-06-22T06:13:44;23.30;76.50
16503;DHT22;53067;48.114;11.694;2023-06-22T06:16:12;23.30;76.40
16503;DHT22;53067;48.114;11.694;2023-06-22T06:18:39;23.40;76.40
16503;DHT22;53067;48.114;11.694;2023-06-22T06:21:07;23.40;76.40
16503;DHT22;53067;48.114;11.694;2023-06-22T06:23:34;23.40;76.30
16503;DHT22;53067;48.114;11.694;2023-06-22T06:26:02;23.50;76.20
16503;DHT22;53067;48.114;11.694;2023-06-22T06:28:31;23.60;76.40
16503;DHT22;53067;48.114;11.694;2023-06-22T06:30:58;23.60;76.30
16503;DHT22;53067;48.114;11.694;2023-06-22T06:33:26;23.70;76.00
16503;DHT22;53067;48.114;11.694;2023-06-22T06:35:54;23.70;75.70
16503;DHT22;53067;48.114;11.694;2023-06-22T06:38:22;23.80;75.60
16503;DHT22;53067;48.114;11.694;2023-06-22T06:40:50;23.90;75.50
16503;DHT22;53067;48.114;11.694;2023-06-22T06:43:17;23.90;75.20
16503;DHT22;53067;48.114;11.694;2023-06-22T06:45:45;24.00;75.00
16503;DHT22;53067;48.114;11.694;2023-06-22T06:48:12;24.10;74.60
16503;DHT22;53067;48.114;11.694;2023-06-22T06:50:40;24.20;74.10
16503;DHT22;53067;48.114;11.694;2023-06-22T06:53:07;24.30;74.00
16503;DHT22;53067;48.114;11.694;2023-06-22T06:55:35;24.40;74.00
16503;DHT22;53067;48.114;11.694;2023-06-22T06:58:03;24.50;73.70
16503;DHT22;53067;48.114;11.694;2023-06-22T07:00:32;24.50;72.80
16503;DHT22;53067;48.114;11.694;2023-06-22T07:02:59;24.50;72.40
16503;DHT22;53067;48.114;11.694;2023-06-22T07:05:27;24.60;72.60
16503;DHT22;53067;48.114;11.694;2023-06-22T07:07:54;24.70;73.00
16503;DHT22;53067;48.114;11.694;2023-06-22T07:10:23;24.70;72.50
16503;DHT22;53067;48.114;11.694;2023-06-22T07:12:51;24.80;72.10
16503;DHT22;53067;48.114;11.694;2023-06-22T07:15:18;24.90;71.70
16503;DHT22;53067;48.114;11.694;2023-06-22T07:17:46;25.00;71.60
16503;DHT22;53067;48.114;11.694;2023-06-22T07:20:13;25.10;71.40
16503;DHT22;53067;48.114;11.694;2023-06-22T07:22:43;25.20;71.50
16503;DHT22;53067;48.114;11.694;2023-06-22T07:25:14;25.30;71.00
16503;DHT22;53067;48.114;11.694;2023-06-22T07:27:46;25.30;70.10
16503;DHT22;53067;48.114;11.694;2023-06-22T07:30:15;25.40;70.50
16503;DHT22;53067;48.114;11.694;2023-06-22T07:32:42;25.50;69.40
16503;DHT22;53067;48.114;11.694;2023-06-22T07:35:10;25.60;68.80
16503;DHT22;53067;48.114;11.694;2023-06-22T07:37:37;25.70;69.50
16503;DHT22;53067;48.114;11.694;2023-06-22T07:40:20;25.80;69.40
16503;DHT22;53067;48.114;11.694;2023-06-22T07:42:47;25.90;69.40
16503;DHT22;53067;48.114;11.694;2023-06-22T07:45:17;25.90;68.80
16503;DHT22;53067;48.114;11.694;2023-06-22T07:47:44;26.10;69.10
16503;DHT22;53067;48.114;11.694;2023-06-22T07:50:12;26.10;67.30
16503;DHT22;53067;48.114;11.694;2023-06-22T07:52:39;26.20;67.40
16503;DHT22;53067;48.114;11.694;2023-06-22T07:55:07;26.40;67.00
16503;DHT22;53067;48.114;11.694;2023-06-22T07:57:35;26.40;66.90
16503;DHT22;53067;48.114;11.694;2023-06-22T08:00:05;26.50;66.30
16503;DHT22;53067;48.114;11.694;2023-06-22T08:02:34;26.60;66.10
16503;DHT22;53067;48.114;11.694;2023-06-22T08:05:02;26.70;65.20
16503;DHT22;53067;48.114;11.694;2023-06-22T08:07:30;26.80;64.40
16503;DHT22;53067;48.114;11.694;2023-06-22T08:09:59;26.90;64.30
16503;DHT22;53067;48.114;11.694;2023-06-22T08:12:27;27.00;64.30
16503;DHT22;53067;48.114;11.694;2023-06-22T08:14:54;27.20;63.70
16503;DHT22;53067;48.114;11.694;2023-06-22T08:17:24;27.30;63.50
16503;DHT22;53067;48.114;11.694;2023-06-22T08:19:52;27.40;63.00
16503;DHT22;53067;48.114;11.694;2023-06-22T08:22:19;27.50;62.60
16503;DHT22;53067;48.114;11.694;2023-06-22T08:24:47;27.60;62.60
16503;DHT22;53067;48.114;11.694;2023-06-22T08:27:15;27.70;61.90
16503;DHT22;53067;48.114;11.694;2023-06-22T08:29:44;27.80;61.10
16503;DHT22;53067;48.114;11.694;2023-06-22T08:32:14;27.90;61.10
16503;DHT22;53067;48.114;11.694;2023-06-22T08:34:42;28.10;60.50
16503;DHT22;53067;48.114;11.694;2023-06-22T08:37:09;28.20;59.60
16503;DHT22;53067;48.114;11.694;2023-06-22T08:39:37;28.20;59.40
16503;DHT22;53067;48.114;11.694;2023-06-22T08:42:06;28.30;59.30
16503;DHT22;53067;48.114;11.694;2023-06-22T08:44:33;28.40;59.30
16503;DHT22;53067;48.114;11.694;2023-06-22T08:47:01;28.50;58.60
16503;DHT22;53067;48.114;11.694;2023-06-22T08:49:30;28.50;58.10
16503;DHT22;53067;48.114;11.694;2023-06-22T08:51:57;28.60;58.30
16503;DHT22;53067;48.114;11.694;2023-06-22T08:54:25;28.70;57.80
16503;DHT22;53067;48.114;11.694;2023-06-22T08:56:52;28.70;58.60
16503;DHT22;53067;48.114;11.694;2023-06-22T08:59:20;28.80;58.10
16503;DHT22;53067;48.114;11.694;2023-06-22T09:01:47;28.80;58.20
16503;DHT22;53067;48.114;11.694;2023-06-22T09:04:15;28.80;57.70
16503;DHT22;53067;48.114;11.694;2023-06-22T09:06:42;28.90;58.70
16503;DHT22;53067;48.114;11.694;2023-06-22T09:09:16;29.10;58.30
16503;DHT22;53067;48.114;11.694;2023-06-22T09:11:44;29.20;58.40
16503;DHT22;53067;48.114;11.694;2023-06-22T09:14:11;29.30;58.00
16503;DHT22;53067;48.114;11.694;2023-06-22T09:16:39;29.40;58.20
16503;DHT22;53067;48.114;11.694;2023-06-22T09:19:06;29.50;57.90
16503;DHT22;53067;48.114;11.694;2023-06-22T09:21:34;29.60;57.50
16503;DHT22;53067;48.114;11.694;2023-06-22T09:24:02;29.60;56.70
16503;DHT22;53067;48.114;11.694;2023-06-22T09:26:29;29.70;57.10
16503;DHT22;53067;48.114;11.694;2023-06-22T09:28:57;29.80;56.40
16503;DHT22;53067;48.114;11.694;2023-06-22T09:31:24;29.90;56.40
16503;DHT22;53067;48.114;11.694;2023-06-22T09:33:54;29.90;56.10
16503;DHT22;53067;48.114;11.694;2023-06-22T09:36:22;30.00;56.00
16503;DHT22;53067;48.114;11.694;2023-06-22T09:38:50;30.10;55.90
16503;DHT22;53067;48.114;11.694;2023-06-22T09:41:22;30.20;55.40
16503;DHT22;53067;48.114;11.694;2023-06-22T09:43:50;30.40;55.50
16503;DHT22;53067;48.114;11.694;2023-06-22T09:46:17;30.50;55.30
16503;DHT22;53067;48.114;11.694;2023-06-22T09:48:47;30.60;54.40
16503;DHT22;53067;48.114;11.694;2023-06-22T09:51:14;30.80;54.40
16503;DHT22;53067;48.114;11.694;2023-06-22T09:53:42;30.90;53.10
16503;DHT22;53067;48.114;11.694;2023-06-22T09:56:10;31.00;53.10
16503;DHT22;53067;48.114;11.694;2023-06-22T09:58:45;31.00;53.00
16503;DHT22;53067;48.114;11.694;2023-06-22T10:01:13;31.10;53.10
16503;DHT22;53067;48.114;11.694;2023-06-22T10:03:41;31.10;53.40
16503;DHT22;53067;48.114;11.694;2023-06-22T10:06:08;31.20;52.10
16503;DHT22;53067;48.114;11.694;2023-06-22T10:08:36;31.20;52.60
16503;DHT22;53067;48.114;11.694;2023-06-22T10:11:04;31.30;51.80
16503;DHT22;53067;48.114;11.694;2023-06-22T10:13:32;31.40;50.90
16503;DHT22;53067;48.114;11.694;2023-06-22T10:15:59;31.50;51.70
16503;DHT22;53067;48.114;11.694;2023-06-22T10:18:27;31.60;50.60
16503;DHT22;53067;48.114;11.694;2023-06-22T10:20:54;31.70;50.30
16503;DHT22;53067;48.114;11.694;2023-06-22T10:23:22;31.80;50.60
16503;DHT22;53067;48.114;11.694;2023-06-22T10:26:18;31.90;49.60
16503;DHT22;53067;48.114;11.694;2023-06-22T10:28:54;32.00;49.60
16503;DHT22;53067;48.114;11.694;2023-06-22T10:31:21;32.10;50.00
16503;DHT22;53067;48.114;11.694;2023-06-22T10:34:01;32.20;49.00
16503;DHT22;53067;48.114;11.694;2023-06-22T10:36:28;32.30;47.70
16503;DHT22;53067;48.114;11.694;2023-06-22T10:38:56;32.40;49.00
16503;DHT22;53067;48.114;11.694;2023-06-22T10:41:25;32.40;49.00
16503;DHT22;53067;48.114;11.694;2023-06-22T10:43:55;32.50;49.70
16503;DHT22;53067;48.114;11.694;2023-06-22T10:46:24;32.60;48.90
16503;DHT22;53067;48.114;11.694;2023-06-22T10:48:52;32.70;48.00
16503;DHT22;53067;48.114;11.694;2023-06-22T10:51:21;32.70;47.60
16503;DHT22;53067;48.114;11.694;2023-06-22T10:53:49;32.90;48.00
16503;DHT22;53067;48.114;11.694;2023-06-22T10:56:18;33.00;48.10
16503;DHT22;53067;48.114;11.694;2023-06-22T10:58:46;33.20;47.90
16503;DHT22;53067;48.114;11.694;2023-06-22T11:01:13;33.30;47.10
16503;DHT22;53067;48.114;11.694;2023-06-22T11:03:41;33.30;46.60
16503;DHT22;53067;48.114;11.694;2023-06-22T11:06:08;33.50;46.80
16503;DHT22;53067;48.114;11.694;2023-06-22T11:08:45;33.60;46.40
16503;DHT22;53067;48.114;11.694;2023-06-22T11:11:13;33.70;46.80
16503;DHT22;53067;48.114;11.694;2023-06-22T11:13:40;33.90;45.90
16503;DHT22;53067;48.114;11.694;2023-06-22T11:16:08;34.10;46.50
16503;DHT22;53067;48.114;11.694;2023-06-22T11:18:35;34.20;45.60
16503;DHT22;53067;48.114;11.694;2023-06-22T11:21:03;34.30;45.00
16503;DHT22;53067;48.114;11.694;2023-06-22T11:23:30;34.30;45.20
16503;DHT22;53067;48.114;11.694;2023-06-22T11:25:58;34.40;44.80
16503;DHT22;53067;48.114;11.694;2023-06-22T11:28:25;34.40;45.00
16503;DHT22;53067;48.114;11.694;2023-06-22T11:30:53;34.50;45.10
16503;DHT22;53067;48.114;11.694;2023-06-22T11:33:20;34.40;43.70
16503;DHT22;53067;48.114;11.694;2023-06-22T11:35:48;34.40;44.00
16503;DHT22;53067;48.114;11.694;2023-06-22T11:38:17;34.40;44.20
16503;DHT22;53067;48.114;11.694;2023-06-22T11:40:45;34.40;45.30
16503;DHT22;53067;48.114;11.694;2023-06-22T11:43:12;34.50;45.60
16503;DHT22;53067;48.114;11.694;2023-06-22T11:45:41;34.50;45.60
16503;DHT22;53067;48.114;11.694;2023-06-22T11:48:08;34.60;46.20
16503;DHT22;53067;48.114;11.694;2023-06-22T11:50:36;34.60;45.00
16503;DHT22;53067;48.114;11.694;2023-06-22T11:53:04;34.60;44.60
16503;DHT22;53067;48.114;11.694;2023-06-22T11:55:31;34.80;44.30
16503;DHT22;53067;48.114;11.694;2023-06-22T11:57:59;34.90;45.00
16503;DHT22;53067;48.114;11.694;2023-06-22T12:00:28;35.00;45.00
16503;DHT22;53067;48.114;11.694;2023-06-22T12:02:56;35.20;45.00
16503;DHT22;53067;48.114;11.694;2023-06-22T12:05:23;35.30;44.70
16503;DHT22;53067;48.114;11.694;2023-06-22T12:07:53;35.30;44.30
16503;DHT22;53067;48.114;11.694;2023-06-22T12:10:22;35.40;44.50
16503;DHT22;53067;48.114;11.694;2023-06-22T12:12:51;35.40;44.00
16503;DHT22;53067;48.114;11.694;2023-06-22T12:15:19;35.50;43.60
16503;DHT22;53067;48.114;11.694;2023-06-22T12:17:46;35.50;43.60
16503;DHT22;53067;48.114;11.694;2023-06-22T12:20:14;35.50;43.80
16503;DHT22;53067;48.114;11.694;2023-06-22T12:22:42;35.50;43.70
16503;DHT22;53067;48.114;11.694;2023-06-22T12:25:10;35.50;43.40
16503;DHT22;53067;48.114;11.694;2023-06-22T12:27:38;35.40;44.00
16503;DHT22;53067;48.114;11.694;2023-06-22T12:30:15;35.40;43.80
16503;DHT22;53067;48.114;11.694;2023-06-22T12:32:43;35.40;43.20
16503;DHT22;53067;48.114;11.694;2023-06-22T12:35:10;35.40;43.70
16503;DHT22;53067;48.114;11.694;2023-06-22T12:37:43;35.50;43.70
16503;DHT22;53067;48.114;11.694;2023-06-22T12:40:11;35.60;43.50
16503;DHT22;53067;48.114;11.694;2023-06-22T12:42:39;35.70;43.40
16503;DHT22;53067;48.114;11.694;2023-06-22T12:45:20;35.70;43.20
16503;DHT22;53067;48.114;11.694;2023-06-22T12:47:47;35.80;43.30
16503;DHT22;53067;48.114;11.694;2023-06-22T12:50:16;35.90;43.40
16503;DHT22;53067;48.114;11.694;2023-06-22T12:52:44;36.00;42.20
16503;DHT22;53067;48.114;11.694;2023-06-22T12:55:11;36.00;42.30
16503;DHT22;53067;48.114;11.694;2023-06-22T12:57:39;35.90;42.90
16503;DHT22;53067;48.114;11.694;2023-06-22T13:00:07;35.90;42.80
16503;DHT22;53067;48.114;11.694;2023-06-22T13:02:36;35.90;42.30
16503;DHT22;53067;48.114;11.694;2023-06-22T13:05:04;35.90;42.40
16503;DHT22;53067;48.114;11.694;2023-06-22T13:07:32;35.90;42.60
16503;DHT22;53067;48.114;11.694;2023-06-22T13:09:59;35.90;42.80
16503;DHT22;53067;48.114;11.694;2023-06-22T13:12:27;36.00;42.90
16503;DHT22;53067;48.114;11.694;2023-06-22T13:14:55;36.10;42.80
16503;DHT22;53067;48.114;11.694;2023-06-22T13:17:22;36.20;42.60
16503;DHT22;53067;48.114;11.694;2023-06-22T13:19:50;36.30;42.10
16503;DHT22;53067;48.114;11.694;2023-06-22T13:22:32;36.40;41.80
16503;DHT22;53067;48.114;11.694;2023-06-22T13:25:02;36.50;41.80
16503;DHT22;53067;48.114;11.694;2023-06-22T13:27:29;36.50;41.20
16503;DHT22;53067;48.114;11.694;2023-06-22T13:29:57;36.50;41.70
16503;DHT22;53067;48.114;11.694;2023-06-22T13:32:24;36.60;41.60
16503;DHT22;53067;48.114;11.694;2023-06-22T13:34:53;36.70;41.20
16503;DHT22;53067;48.114;11.694;2023-06-22T13:37:21;36.80;40.80
16503;DHT22;53067;48.114;11.694;2023-06-22T13:39:48;36.80;40.60
16503;DHT22;53067;48.114;11.694;2023-06-22T13:42:16;36.80;40.60
16503;DHT22;53067;48.114;11.694;2023-06-22T13:44:43;36.70;40.60
16503;DHT22;53067;48.114;11.694;2023-06-22T13:47:11;36.70;40.30
16503;DHT22;53067;48.114;11.694;2023-06-22T13:49:38;36.70;40.20
16503;DHT22;53067;48.114;11.694;2023-06-22T13:52:07;36.80;40.10
16503;DHT22;53067;48.114;11.694;2023-06-22T13:54:36;36.80;40.10
16503;DHT22;53067;48.114;11.694;2023-06-22T13:57:04;36.80;39.90
16503;DHT22;53067;48.114;11.694;2023-06-22T13:59:32;36.80;40.50
16503;DHT22;53067;48.114;11.694;2023-06-22T14:01:59;36.80;40.10
16503;DHT22;53067;48.114;11.694;2023-06-22T14:04:27;36.80;39.80
16503;DHT22;53067;48.114;11.694;2023-06-22T14:06:55;36.90;39.60
16503;DHT22;53067;48.114;11.694;2023-06-22T14:09:22;36.90;39.60
16503;DHT22;53067;48.114;11.694;2023-06-22T14:11:50;37.10;38.80
16503;DHT22;53067;48.114;11.694;2023-06-22T14:14:17;37.20;39.10
16503;DHT22;53067;48.114;11.694;2023-06-22T14:16:45;37.20;38.90
16503;DHT22;53067;48.114;11.694;2023-06-22T14:19:12;37.30;38.90
16503;DHT22;53067;48.114;11.694;2023-06-22T14:21:40;37.30;38.70
16503;DHT22;53067;48.114;11.694;2023-06-22T14:24:07;37.40;38.70
16503;DHT22;53067;48.114;11.694;2023-06-22T14:26:35;37.40;38.70
16503;DHT22;53067;48.114;11.694;2023-06-22T14:29:02;37.60;37.80
16503;DHT22;53067;48.114;11.694;2023-06-22T14:31:30;37.90;37.80
16503;DHT22;53067;48.114;11.694;2023-06-22T14:33:58;38.10;38.50
16503;DHT22;53067;48.114;11.694;2023-06-22T14:36:25;38.40;36.80
16503;DHT22;53067;48.114;11.694;2023-06-22T14:38:53;38.70;36.90
16503;DHT22;53067;48.114;11.694;2023-06-22T14:41:20;39.10;35.30
16503;DHT22;53067;48.114;11.694;2023-06-22T14:43:49;39.50;35.00
16503;DHT22;53067;48.114;11.694;2023-06-22T14:46:18;39.70;34.60
16503;DHT22;53067;48.114;11.694;2023-06-22T14:48:46;40.00;34.40
16503;DHT22;53067;48.114;11.694;2023-06-22T14:51:15;40.10;34.90
16503;DHT22;53067;48.114;11.694;2023-06-22T14:53:43;40.30;35.10
16503;DHT22;53067;48.114;11.694;2023-06-22T14:56:12;40.20;34.00
16503;DHT22;53067;48.114;11.694;2023-06-22T14:58:46;39.90;34.00
16503;DHT22;53067;48.114;11.694;2023-06-22T15:01:26;39.60;34.30
16503;DHT22;53067;48.114;11.694;2023-06-22T15:03:53;39.20;35.70
16503;DHT22;53067;48.114;11.694;2023-06-22T15:09:15;38.70;36.30
16503;DHT22;53067;48.114;11.694;2023-06-22T15:11:43;38.40;36.90
16503;DHT22;53067;48.114;11.694;2023-06-22T15:14:13;38.10;36.70
16503;DHT22;53067;48.114;11.694;2023-06-22T15:16:41;38.00;37.30
16503;DHT22;53067;48.114;11.694;2023-06-22T15:19:08;37.80;38.10
16503;DHT22;53067;48.114;11.694;2023-06-22T15:21:36;37.60;38.60
16503;DHT22;53067;48.114;11.694;2023-06-22T15:24:04;37.50;38.80
16503;DHT22;53067;48.114;11.694;2023-06-22T15:26:31;37.40;39.10
16503;DHT22;53067;48.114;11.694;2023-06-22T15:28:59;37.30;38.90
16503;DHT22;53067;48.114;11.694;2023-06-22T15:31:29;37.20;38.50
16503;DHT22;53067;48.114;11.694;2023-06-22T15:33:57;37.10;39.30
16503;DHT22;53067;48.114;11.694;2023-06-22T15:36:24;37.00;39.60